Time;durP1;ratioP1;P1;durP2;ratioP2;P2;SDS_P1;SDS_P2;PMS_P1;PMS_P2;Temp;Humidity;BMP_temperature;BMP_pressure;BME280_temperature;BME280_humidity;BME280_pressure;Samples;Min_cycle;Max_cycle;Signal;HPM_P1;HPM_P2
2022/12/15 00:39:39;;;;;;;11.87;5.53;;;;;;;7.22;87.96;98320.59;6041412;23;20219;-87
2022/12/15 00:42:06;;;;;;;13.83;6.27;;;;;;;7.48;87.43;98337.47;6040715;23;20514;-86
2022/12/15 00:44:31;;;;;;;10.70;5.23;;;;;;;7.65;86.67;98348.69;6040542;23;20181;-86
2022/12/15 00:46:57;;;;;;;11.90;5.57;;;;;;;7.79;86.41;98332.31;6039512;23;20190;-86
2022/12/15 01:22:28;;;;;;;10.97;5.90;;;;;;;8.22;86.75;98273.38;6040735;23;20152;-87
2022/12/15 01:24:54;;;;;;;8.27;4.70;;;;;;;8.20;87.48;98280.44;6016227;23;20156;-86
2022/12/15 01:27:19;;;;;;;9.17;4.80;;;;;;;8.26;87.26;98278.31;6039481;23;20235;-87
2022/12/15 01:29:45;;;;;;;11.73;5.30;;;;;;;8.32;86.75;98264.13;6040558;23;20197;-86
2022/12/15 01:32:11;;;;;;;9.73;4.17;;;;;;;8.41;86.92;98274.03;6039092;23;20166;-86
2022/12/15 01:34:37;;;;;;;10.43;4.97;;;;;;;8.49;86.72;98253.56;6040210;23;20161;-86
2022/12/15 01:37:02;;;;;;;9.33;4.53;;;;;;;8.51;85.39;98254.28;6040146;23;20566;-87
2022/12/15 01:40:43;;;;;;;8.50;4.30;;;;;;;8.40;86.13;98246.25;6015192;23;20316;-86
2022/12/15 01:42:13;;;;;;;20.00;5.10;;;;;;;8.42;86.30;98228.69;6040147;23;20168;-87
2022/12/15 01:44:38;;;;;;;11.53;6.10;;;;;;;8.70;85.13;98239.19;6015261;23;20599;-87
2022/12/15 01:47:07;;;;;;;14.70;6.07;;;;;;;8.67;84.88;98242.03;6039461;23;20622;-87
2022/12/15 01:49:33;;;;;;;10.50;4.77;;;;;;;8.69;84.96;98237.53;6039235;23;20521;-87
2022/12/15 01:52:03;;;;;;;9.10;4.93;;;;;;;8.80;84.88;98240.38;6015893;23;20192;-87
2022/12/15 01:54:38;;;;;;;13.30;5.03;;;;;;;8.74;85.52;98216.38;6040057;23;20154;-87
2022/12/15 01:57:07;;;;;;;12.07;5.57;;;;;;;8.82;86.41;98217.59;6040998;23;20226;-88
2022/12/15 01:59:42;;;;;;;13.73;5.40;;;;;;;8.85;86.02;98212.19;6039824;23;20181;-87
2022/12/15 02:02:07;;;;;;;14.10;5.83;;;;;;;8.91;85.71;98208.38;6015560;23;20149;-87
2022/12/15 02:04:33;;;;;;;10.03;4.80;;;;;;;8.86;85.60;98199.94;6039602;23;20217;-86
2022/12/15 02:06:59;;;;;;;13.17;5.93;;;;;;;8.96;86.15;98201.91;6015970;23;20248;-87
2022/12/15 02:09:25;;;;;;;15.53;5.50;;;;;;;9.02;85.44;98198.91;6014879;23;20168;-87
2022/12/15 02:11:56;;;;;;;12.67;5.33;;;;;;;9.15;85.00;98220.75;6040245;23;20169;-87
2022/12/15 02:14:38;;;;;;;12.30;5.50;;;;;;;9.43;83.79;98213.84;6039580;23;20146;-87
2022/12/15 02:17:26;;;;;;;10.83;5.30;;;;;;;9.51;83.02;98232.50;6015934;23;20569;-87
2022/12/15 02:20:11;;;;;;;12.27;6.23;;;;;;;9.60;82.84;98231.91;6015556;23;20178;-87
2022/12/15 02:22:55;;;;;;;11.43;5.60;;;;;;;9.65;82.47;98222.00;6039795;23;20174;-87
2022/12/15 02:25:26;;;;;;;10.37;5.77;;;;;;;9.74;82.35;98224.88;6040122;23;20150;-87
2022/12/15 02:28:04;;;;;;;10.07;5.17;;;;;;;9.93;81.54;98229.78;6039989;23;20180;-87
2022/12/15 02:33:48;;;;;;;21.23;9.60;;;;;;;10.08;76.47;98236.66;5996189;23;20228;-88
2022/12/15 02:36:31;;;;;;;18.17;9.73;;;;;;;9.92;72.64;98237.72;6040043;23;20149;-87
2022/12/15 02:38:57;;;;;;;15.03;8.60;;;;;;;9.65;70.20;98241.16;6039833;23;20138;-87
2022/12/15 02:41:50;;;;;;;26.73;11.87;;;;;;;9.40;70.22;98255.88;6039540;23;20175;-87
2022/12/15 02:44:18;;;;;;;17.47;8.80;;;;;;;9.06;69.89;98262.31;6034075;23;20209;-89
2022/12/15 02:47:05;;;;;;;18.10;8.70;;;;;;;8.15;70.36;98293.75;6014837;23;20160;-87
2022/12/15 02:49:57;;;;;;;22.77;11.37;;;;;;;7.72;71.75;98290.06;6040181;23;20142;-88
2022/12/15 02:52:29;;;;;;;23.80;11.93;;;;;;;7.64;71.35;98301.84;6039888;23;20547;-87
2022/12/15 02:55:01;;;;;;;19.83;9.40;;;;;;;7.14;72.33;98312.31;6014627;23;20166;-87
2022/12/15 02:57:42;;;;;;;23.03;11.80;;;;;;;6.78;73.91;98307.25;6039681;23;20138;-88
2022/12/15 03:00:09;;;;;;;20.70;10.97;;;;;;;6.71;73.85;98327.53;6039743;23;20166;-88
2022/12/15 03:02:39;;;;;;;25.87;12.20;;;;;;;6.68;74.42;98327.69;6039409;23;20153;-89
2022/12/15 03:05:06;;;;;;;23.73;10.33;;;;;;;6.43;74.33;98336.78;6040159;23;20153;-87
2022/12/15 03:07:31;;;;;;;23.97;11.53;;;;;;;6.40;74.11;98323.91;6040021;23;20153;-88
2022/12/15 03:10:01;;;;;;;25.60;11.30;;;;;;;6.22;74.26;98343.84;6039465;23;20221;-87
2022/12/15 03:12:26;;;;;;;22.37;10.87;;;;;;;6.28;74.72;98338.38;6038554;23;20160;-87
2022/12/15 03:14:52;;;;;;;21.80;10.07;;;;;;;6.14;75.19;98365.03;6014557;23;20671;-87
2022/12/15 03:17:18;;;;;;;22.43;11.60;;;;;;;6.02;75.57;98359.56;6039572;23;20154;-87
2022/12/15 03:19:43;;;;;;;20.30;9.97;;;;;;;6.11;75.24;98364.34;6014775;23;20176;-86
2022/12/15 03:22:09;;;;;;;17.03;10.17;;;;;;;5.90;76.08;98365.31;6039300;23;20149;-88
2022/12/15 03:24:34;;;;;;;23.20;11.10;;;;;;;5.90;75.28;98373.97;6039296;23;20161;-87
2022/12/15 03:27:00;;;;;;;27.30;11.57;;;;;;;5.67;77.35;98375.91;6039635;23;20582;-88
2022/12/15 03:29:25;;;;;;;22.57;11.93;;;;;;;5.83;77.36;98369.09;6014398;23;20289;-87
2022/12/15 03:31:51;;;;;;;24.13;11.70;;;;;;;5.83;76.97;98363.91;6039883;23;20146;-87
2022/12/15 03:34:16;;;;;;;25.43;12.43;;;;;;;5.93;76.54;98354.78;6039261;23;20540;-87
2022/12/15 03:36:42;;;;;;;27.27;11.60;;;;;;;5.80;77.20;98351.03;6039196;23;20595;-87
2022/12/15 03:39:08;;;;;;;21.00;11.03;;;;;;;5.80;77.02;98374.44;6039179;23;20164;-87
2022/12/15 03:41:33;;;;;;;25.47;10.53;;;;;;;6.00;76.88;98354.44;6039098;23;20633;-87
2022/12/15 03:43:59;;;;;;;26.60;9.87;;;;;;;6.04;76.37;98365.53;6039215;23;20193;-87
2022/12/15 03:46:25;;;;;;;18.37;9.57;;;;;;;6.12;75.47;98363.44;6039192;23;20154;-87
2022/12/15 03:48:52;;;;;;;23.93;11.40;;;;;;;6.05;75.89;98370.66;6039156;23;20494;-87
2022/12/15 03:51:18;;;;;;;33.67;13.10;;;;;;;6.02;76.09;98380.38;6039146;23;20160;-88
2022/12/15 03:53:46;;;;;;;25.93;12.30;;;;;;;6.17;75.79;98366.66;6039123;23;20189;-88
2022/12/15 03:56:12;;;;;;;27.20;11.73;;;;;;;6.39;75.24;98358.69;6039470;23;20229;-88
2022/12/15 03:58:37;;;;;;;29.43;11.83;;;;;;;6.27;75.36;98365.31;6039461;23;20185;-88
2022/12/15 04:01:31;;;;;;;23.23;12.10;;;;;;;6.06;76.35;98353.31;6037874;23;20268;-88
2022/12/15 04:03:57;;;;;;;19.53;8.77;;;;;;;5.98;76.33;98348.47;6039519;23;20201;-88
2022/12/15 04:06:23;;;;;;;24.27;11.47;;;;;;;6.08;76.74;98354.91;6039187;23;20154;-87
2022/12/15 04:08:49;;;;;;;26.43;11.57;;;;;;;6.23;76.57;98352.50;6039471;23;20160;-86
2022/12/15 04:11:14;;;;;;;23.37;11.00;;;;;;;6.34;76.60;98353.66;6039061;23;20150;-88
2022/12/15 04:13:40;;;;;;;26.17;11.70;;;;;;;6.44;76.68;98369.72;6039316;23;20158;-87
2022/12/15 04:16:06;;;;;;;27.10;11.43;;;;;;;6.53;76.83;98377.91;6039347;23;20209;-87
2022/12/15 04:18:32;;;;;;;26.07;12.17;;;;;;;6.63;76.58;98363.53;6039048;23;20149;-87
2022/12/15 04:20:57;;;;;;;22.40;10.77;;;;;;;6.79;76.72;98364.44;6039221;23;20181;-87
2022/12/15 04:23:23;;;;;;;23.03;10.97;;;;;;;7.01;75.65;98377.25;6038989;23;20292;-87
2022/12/15 05:31:57;;;;;;;22.70;10.33;;;;;;;8.45;70.27;98362.56;6040294;23;20151;-88
2022/12/15 05:34:40;;;;;;;20.13;10.33;;;;;;;8.48;70.71;98374.59;6040894;23;20259;-88
2022/12/15 05:37:06;;;;;;;20.70;9.53;;;;;;;8.60;70.38;98374.75;6041228;23;20137;-88
2022/12/15 05:39:32;;;;;;;23.03;9.77;;;;;;;8.70;69.67;98384.69;6039682;23;20219;-88
2022/12/15 05:41:58;;;;;;;25.67;11.27;;;;;;;8.70;69.20;98395.94;6039954;23;20209;-88
2022/12/15 05:44:24;;;;;;;26.23;11.67;;;;;;;8.69;69.86;98383.84;6015133;23;20241;-88
2022/12/15 05:46:50;;;;;;;25.20;10.33;;;;;;;8.65;69.59;98382.31;6040113;23;20153;-88
2022/12/15 05:49:17;;;;;;;31.40;12.10;;;;;;;8.67;69.97;98390.94;6015315;23;20162;-88
2022/12/15 05:51:44;;;;;;;29.30;10.83;;;;;;;8.65;70.12;98388.38;6038789;23;20161;-89
2022/12/15 05:54:14;;;;;;;26.93;10.27;;;;;;;8.63;70.53;98390.25;6040357;23;20243;-88
2022/12/15 05:56:40;;;;;;;24.53;10.83;;;;;;;8.43;69.39;98381.84;6015166;23;20182;-88
2022/12/15 05:59:05;;;;;;;26.27;11.00;;;;;;;8.29;69.67;98380.00;6038799;23;20593;-88
2022/12/15 06:01:31;;;;;;;25.23;12.33;;;;;;;8.18;69.89;98377.09;6038652;23;20193;-88
2022/12/15 06:03:57;;;;;;;23.73;11.77;;;;;;;8.21;69.88;98386.53;6039390;23;20568;-88
2022/12/15 06:06:23;;;;;;;24.37;11.53;;;;;;;8.10;70.44;98401.94;6039894;23;20159;-88
2022/12/15 06:08:49;;;;;;;25.03;11.93;;;;;;;8.01;69.88;98417.19;6039840;23;20153;-88
2022/12/15 06:11:17;;;;;;;22.10;11.03;;;;;;;7.90;70.16;98426.50;6039784;23;20156;-88
2022/12/15 06:13:43;;;;;;;26.20;12.17;;;;;;;7.87;70.19;98431.88;6038604;23;20486;-88
2022/12/15 06:16:11;;;;;;;26.63;13.13;;;;;;;7.82;69.84;98424.28;6040104;23;20149;-88
2022/12/15 06:18:39;;;;;;;28.17;12.30;;;;;;;7.77;70.55;98433.28;6040143;23;20154;-89
2022/12/15 06:21:07;;;;;;;22.07;11.07;;;;;;;7.46;70.34;98434.03;6014844;23;20185;-89
2022/12/15 06:23:33;;;;;;;25.50;11.97;;;;;;;7.25;71.48;98448.16;6039724;23;20558;-88
2022/12/15 06:26:07;;;;;;;29.37;11.93;;;;;;;7.01;73.53;98441.53;6039681;23;20156;-89
2022/12/15 06:28:32;;;;;;;32.70;13.70;;;;;;;7.00;74.13;98443.28;6039622;23;20149;-88
2022/12/15 06:31:01;;;;;;;33.40;13.97;;;;;;;6.86;74.15;98452.72;6038417;23;20153;-88
2022/12/15 06:33:28;;;;;;;30.40;12.47;;;;;;;6.72;75.21;98454.22;6038807;23;20225;-88
2022/12/15 06:35:54;;;;;;;40.93;16.00;;;;;;;6.59;76.53;98453.13;6039520;23;20582;-87
2022/12/15 06:38:19;;;;;;;49.23;15.60;;;;;;;6.80;76.14;98453.84;6039490;23;20160;-88
2022/12/15 06:40:45;;;;;;;43.13;14.63;;;;;;;6.90;75.94;98456.84;6039412;23;20185;-88
2022/12/15 06:43:10;;;;;;;31.23;14.37;;;;;;;6.69;76.60;98462.19;6039875;23;20469;-88
2022/12/15 06:45:36;;;;;;;45.27;17.33;;;;;;;6.68;77.09;98464.88;6039384;23;20165;-89
2022/12/15 06:48:02;;;;;;;53.43;18.33;;;;;;;6.76;77.01;98470.56;6038273;23;20257;-89
2022/12/15 06:50:27;;;;;;;38.47;15.50;;;;;;;6.77;76.52;98467.88;6015496;23;20635;-88
2022/12/15 06:52:53;;;;;;;51.90;17.37;;;;;;;6.81;76.95;98477.22;6039976;23;20172;-89
2022/12/15 06:55:18;;;;;;;49.30;17.43;;;;;;;6.85;77.29;98485.72;6038233;23;20168;-89
2022/12/15 06:57:49;;;;;;;50.40;17.30;;;;;;;6.78;77.83;98487.81;6039353;23;20164;-89
2022/12/15 07:00:15;;;;;;;40.47;18.17;;;;;;;6.91;77.76;98495.00;6038427;23;20193;-89
2022/12/15 07:02:41;;;;;;;48.03;16.83;;;;;;;7.10;77.09;98499.25;6039272;23;20241;-89
2022/12/15 07:05:08;;;;;;;57.43;19.80;;;;;;;6.96;77.65;98504.31;6039334;23;20161;-89
2022/12/15 07:07:33;;;;;;;66.20;18.43;;;;;;;6.84;78.10;98504.03;6039702;23;20232;-90
2022/12/15 07:09:59;;;;;;;53.17;18.13;;;;;;;6.95;77.84;98499.16;6039416;23;20253;-90
2022/12/15 07:12:24;;;;;;;52.93;20.53;;;;;;;7.16;77.68;98487.69;6039288;23;20209;-89
2022/12/15 07:14:50;;;;;;;50.20;18.53;;;;;;;7.27;77.07;98501.88;6014523;23;20161;-88
2022/12/15 07:17:15;;;;;;;51.07;18.83;;;;;;;7.26;78.19;98514.97;6014477;23;20233;-90
2022/12/15 07:19:41;;;;;;;48.53;18.77;;;;;;;7.33;77.73;98521.59;6039867;23;20562;-88
2022/12/15 07:22:06;;;;;;;61.47;18.53;;;;;;;7.59;76.75;98513.31;6014499;23;20154;-89
2022/12/15 07:24:32;;;;;;;56.20;19.43;;;;;;;7.68;76.95;98507.63;6039697;23;20636;-88
2022/12/15 07:26:57;;;;;;;50.43;18.20;;;;;;;7.70;76.88;98505.81;6039300;23;20544;-88
2022/12/15 07:29:23;;;;;;;47.93;17.57;;;;;;;7.97;76.48;98499.16;6039931;23;20153;-89
2022/12/15 07:31:48;;;;;;;55.37;16.67;;;;;;;8.09;75.84;98508.13;6039294;23;20217;-89
2022/12/15 07:34:14;;;;;;;43.13;15.37;;;;;;;8.14;76.02;98506.09;6039823;23;20229;-88
2022/12/15 07:36:39;;;;;;;39.40;16.23;;;;;;;8.32;74.98;98499.09;6039622;23;20151;-88
2022/12/15 07:39:05;;;;;;;43.50;15.17;;;;;;;8.28;74.44;98515.84;6014510;23;20289;-88
2022/12/15 07:41:30;;;;;;;39.23;17.13;;;;;;;8.25;74.33;98523.81;6039177;23;20645;-89
2022/12/15 07:43:57;;;;;;;41.33;16.73;;;;;;;8.39;74.22;98530.00;6039095;23;20598;-88
2022/12/15 07:46:22;;;;;;;45.07;15.67;;;;;;;8.41;74.52;98522.09;6039230;23;20151;-89
2022/12/15 07:48:48;;;;;;;42.03;16.40;;;;;;;8.39;73.67;98522.16;6039095;23;20573;-88
2022/12/15 07:51:14;;;;;;;37.07;13.03;;;;;;;8.16;72.84;98537.31;6014354;23;20190;-89
2022/12/15 07:53:39;;;;;;;47.10;17.23;;;;;;;8.29;73.40;98538.41;6039230;23;20521;-89
2022/12/15 07:56:05;;;;;;;26.17;12.43;;;;;;;8.32;73.75;98544.31;6039677;23;20566;-89
2022/12/15 07:58:31;;;;;;;35.87;16.33;;;;;;;8.55;73.02;98532.63;6039141;23;20157;-88
2022/12/15 08:01:01;;;;;;;29.90;13.30;;;;;;;8.53;71.67;98524.03;6039821;23;20475;-89
2022/12/15 08:03:28;;;;;;;31.80;14.17;;;;;;;8.76;72.88;98514.94;6040259;23;20166;-88
2022/12/15 08:05:53;;;;;;;37.27;13.43;;;;;;;8.91;71.59;98519.34;6041292;23;20166;-89
2022/12/15 08:08:20;;;;;;;38.67;15.43;;;;;;;9.06;71.73;98516.72;6041142;23;20185;-90
2022/12/15 08:10:45;;;;;;;35.60;14.50;;;;;;;9.34;71.31;98539.53;6039608;23;20161;-88
2022/12/15 08:13:12;;;;;;;28.80;12.93;;;;;;;9.45;71.27;98551.97;6040867;23;20160;-89
2022/12/15 08:15:40;;;;;;;35.03;12.80;;;;;;;9.67;71.15;98531.50;6040928;23;20212;-89
2022/12/15 08:18:07;;;;;;;30.87;13.13;;;;;;;9.61;69.96;98558.88;6040929;23;20156;-88
2022/12/15 08:20:34;;;;;;;33.60;13.13;;;;;;;9.70;69.24;98547.00;6015919;23;20189;-90
2022/12/15 08:23:00;;;;;;;30.57;11.77;;;;;;;9.64;68.79;98547.38;6040542;23;20581;-88
2022/12/15 08:25:43;;;;;;;28.77;12.13;;;;;;;9.77;67.87;98553.59;6039565;23;20185;-90
2022/12/15 08:28:09;;;;;;;31.07;13.37;;;;;;;9.72;67.65;98558.25;6041536;23;20218;-88
2022/12/15 08:30:35;;;;;;;37.37;13.10;;;;;;;9.60;68.14;98540.63;6041027;23;20565;-89
2022/12/15 08:33:02;;;;;;;30.17;13.13;;;;;;;9.73;68.35;98547.69;6040765;23;20158;-89
2022/12/15 08:35:27;;;;;;;26.57;12.03;;;;;;;9.79;68.43;98554.34;6040054;23;20162;-89
2022/12/15 08:37:53;;;;;;;32.20;12.97;;;;;;;9.96;68.27;98559.41;6040709;23;20589;-89
2022/12/15 08:40:19;;;;;;;23.67;11.93;;;;;;;10.00;67.24;98550.47;6040477;23;20196;-90
2022/12/15 08:42:44;;;;;;;29.03;12.27;;;;;;;9.98;67.23;98551.47;6040765;23;20172;-89
2022/12/15 08:45:13;;;;;;;35.57;13.90;;;;;;;9.83;67.63;98558.44;6039887;23;20590;-88
2022/12/15 08:47:39;;;;;;;28.23;12.30;;;;;;;9.98;68.27;98546.25;6040858;23;20157;-90
2022/12/15 08:50:09;;;;;;;29.03;12.73;;;;;;;9.95;67.97;98543.81;6016743;23;20512;-90
2022/12/15 08:52:34;;;;;;;32.80;11.10;;;;;;;9.87;67.45;98552.13;6016029;23;20634;-88
2022/12/15 08:55:00;;;;;;;27.83;12.57;;;;;;;9.83;67.48;98545.34;6040847;23;20176;-89
2022/12/15 08:57:26;;;;;;;22.97;11.27;;;;;;;10.11;67.30;98532.34;6015709;23;20160;-89
2022/12/15 09:00:03;;;;;;;28.13;11.73;;;;;;;9.97;68.33;98545.41;6039278;23;20163;-89
2022/12/15 09:02:28;;;;;;;25.67;10.40;;;;;;;9.93;68.12;98549.13;6040030;23;20141;-89
2022/12/15 09:04:54;;;;;;;26.50;13.70;;;;;;;10.17;68.33;98552.91;6041066;23;20217;-89
2022/12/15 09:07:20;;;;;;;22.87;11.10;;;;;;;10.05;68.57;98558.03;6039255;23;20162;-89
2022/12/15 09:09:45;;;;;;;25.90;11.10;;;;;;;10.32;68.81;98552.03;6040484;23;20150;-89
2022/12/15 09:12:14;;;;;;;29.50;12.23;;;;;;;10.46;67.87;98559.84;6040407;23;20165;-89
2022/12/15 09:14:40;;;;;;;25.40;10.40;;;;;;;10.45;67.54;98558.16;6015402;23;20260;-89
2022/12/15 09:17:05;;;;;;;24.07;10.67;;;;;;;10.67;67.75;98551.59;6015798;23;20166;-89
2022/12/15 09:19:41;;;;;;;24.00;11.50;;;;;;;10.96;66.92;98542.75;6040303;23;20169;-90
2022/12/15 09:22:06;;;;;;;25.90;11.80;;;;;;;11.01;66.17;98540.69;6039348;23;20258;-89
2022/12/15 09:24:32;;;;;;;26.03;11.37;;;;;;;11.03;65.72;98546.69;6040282;23;20154;-89
2022/12/15 09:26:57;;;;;;;28.33;10.83;;;;;;;10.92;66.45;98541.28;6040245;23;20193;-89
2022/12/15 09:29:23;;;;;;;21.93;9.53;;;;;;;10.86;65.43;98533.78;6040660;23;20606;-89
2022/12/15 09:31:48;;;;;;;24.57;10.60;;;;;;;11.00;65.87;98550.34;6040226;23;20146;-89
2022/12/15 09:34:18;;;;;;;25.33;11.17;;;;;;;11.11;64.33;98547.88;6040916;23;20161;-88
2022/12/15 09:36:43;;;;;;;28.27;12.40;;;;;;;11.02;64.66;98552.88;6039330;23;20157;-90
2022/12/15 09:39:10;;;;;;;35.00;11.80;;;;;;;11.06;65.10;98554.34;6040564;23;20230;-89
2022/12/15 09:41:38;;;;;;;26.03;12.00;;;;;;;11.15;66.29;98555.53;6040147;23;20213;-89
2022/12/15 09:44:18;;;;;;;24.33;11.70;;;;;;;11.32;66.25;98553.50;6040359;23;20240;-89
2022/12/15 09:47:10;;;;;;;22.47;9.10;;;;;;;11.60;64.47;98544.69;6038815;23;20161;-89
2022/12/15 09:50:02;;;;;;;26.27;11.40;;;;;;;11.54;65.03;98545.94;6015573;23;20233;-90
2022/12/15 09:52:45;;;;;;;24.07;10.37;;;;;;;11.65;64.69;98540.81;6040352;23;20477;-89
2022/12/15 09:56:00;;;;;;;26.70;12.37;;;;;;;11.28;65.09;98540.69;6039047;23;20590;-90
2022/12/15 09:59:11;;;;;;;25.43;11.60;;;;;;;11.43;65.06;98539.69;6040320;23;20146;-90
2022/12/15 10:01:53;;;;;;;30.23;10.77;;;;;;;11.45;64.78;98530.78;5961852;23;20252;-90
2022/12/15 10:04:31;;;;;;;28.60;11.83;;;;;;;11.70;64.09;98522.16;6040362;23;20139;-90
2022/12/15 10:07:05;;;;;;;23.67;9.33;;;;;;;11.89;64.13;98529.66;6015187;23;20153;-90
2022/12/15 10:09:31;;;;;;;25.10;10.23;;;;;;;11.91;64.76;98535.63;6038800;23;20292;-89
2022/12/15 10:12:08;;;;;;;22.70;9.33;;;;;;;12.13;64.47;98534.06;6038699;23;20157;-89
2022/12/15 10:15:27;;;;;;;17.97;8.40;;;;;;;12.24;62.01;98533.31;6040234;23;20168;-89
2022/12/15 10:18:18;;;;;;;21.33;9.07;;;;;;;12.18;62.61;98536.41;5954045;24;20157;-90
2022/12/15 10:21:12;;;;;;;22.47;11.23;;;;;;;12.47;62.69;98543.13;5968360;23;20187;-89
2022/12/15 10:23:34;;;;;;;19.23;9.60;;;;;;;12.73;62.61;98528.97;6035913;23;20196;-89
2022/12/15 10:26:22;;;;;;;22.27;10.17;;;;;;;12.89;63.16;98541.88;6039438;23;20171;-90
2022/12/15 10:29:13;;;;;;;22.27;9.93;;;;;;;12.76;61.70;98543.69;6038602;23;20207;-90
2022/12/15 10:32:17;;;;;;;23.83;9.57;;;;;;;12.78;62.54;98550.53;6015825;23;20201;-90
2022/12/15 10:34:45;;;;;;;24.77;11.33;;;;;;;12.64;62.85;98544.56;6040028;23;20173;-90
2022/12/15 10:37:17;;;;;;;26.40;9.60;;;;;;;12.85;62.67;98546.50;6040031;23;20157;-89
2022/12/15 10:39:54;;;;;;;23.60;9.57;;;;;;;12.81;62.83;98546.84;6039989;23;20157;-90
2022/12/15 15:15:45;;;;;;;;;;;;;;;;;;;;;
2022/12/15 15:19:10;;;;;;;;;;;;;;;;;;;;;
2022/12/15 15:22:44;;;;;;;;;;;;;;;;;;;;;
2022/12/15 15:26:29;;;;;;;;;;;;;;;;;;;;;
2022/12/15 15:33:03;;;;;;;;;;;;;;;;;;;;;
2022/12/15 15:35:56;;;;;;;39.27;19.17;;;;;;;13.35;62.21;98811.38;6067413;23;20462;-91
2022/12/15 15:39:00;;;;;;;;;;;;;;;;;;;;;
2022/12/15 15:41:52;;;;;;;;;;;;;;;;;;;;;
2022/12/15 15:44:33;;;;;;;51.73;20.30;;;;;;;13.14;62.69;98819.91;6068067;23;20251;-90
2022/12/15 15:47:48;;;;;;;50.40;21.40;;;;;;;13.17;62.67;98823.19;6068633;23;20558;-90
2022/12/15 15:50:38;;;;;;;;;;;;;;;;;;;;;
2022/12/15 15:53:33;;;;;;;47.23;19.63;;;;;;;13.01;62.85;98830.38;5981799;24;20241;-90
2022/12/15 15:56:41;;;;;;;;;;;;;;;;;;;;;
2022/12/15 15:59:27;;;;;;;;;;;;;;;;;;;;;
2022/12/15 16:01:58;;;;;;;61.33;24.17;;;;;;;12.69;64.06;98837.78;6068626;23;20747;-90
2022/12/15 16:04:34;;;;;;;;;;;;;;;;;;;;;
2022/12/15 16:07:05;;;;;;;71.20;33.13;;;;;;;12.46;65.78;98846.34;6068914;23;20228;-91
2022/12/15 16:09:30;;;;;;;83.50;36.77;;;;;;;12.34;66.22;98842.69;6043309;23;20547;-90
2022/12/15 16:12:04;;;;;;;79.37;31.80;;;;;;;12.39;66.38;98850.31;6068116;23;20263;-90
2022/12/15 16:14:34;;;;;;;89.13;36.87;;;;;;;12.53;65.93;98852.88;6066850;23;20203;-90
2022/12/15 16:17:10;;;;;;;;;;;;;;;;;;;;;
2022/12/15 16:19:50;;;;;;;59.80;28.43;;;;;;;12.36;66.40;98855.75;6068902;23;20219;-90
2022/12/15 16:22:42;;;;;;;;;;;;;;;;;;;;;
2022/12/15 16:25:50;;;;;;;60.20;26.37;;;;;;;12.34;66.81;98852.41;6069563;23;20637;-90
2022/12/15 16:28:25;;;;;;;54.07;26.27;;;;;;;12.27;67.09;98854.56;6065136;23;20580;-89
2022/12/15 16:30:54;;;;;;;59.13;23.60;;;;;;;12.26;67.15;98859.91;6044746;23;20179;-89
2022/12/15 16:33:25;;;;;;;47.73;23.60;;;;;;;12.18;67.76;98867.44;6068745;23;20165;-89
2022/12/15 16:36:01;;;;;;;50.03;24.73;;;;;;;12.14;67.74;98868.56;6069880;23;20197;-89
2022/12/15 16:38:29;;;;;;;55.93;24.07;;;;;;;12.17;67.67;98884.13;6069849;23;20219;-89
2022/12/15 16:40:57;;;;;;;55.13;25.17;;;;;;;12.12;68.23;98875.69;6044885;23;20189;-89
2022/12/15 16:43:28;;;;;;;57.80;22.63;;;;;;;12.13;68.32;98869.53;6045365;23;20163;-89
2022/12/15 16:45:54;;;;;;;56.77;23.73;;;;;;;12.20;67.77;98874.28;6069610;23;20218;-90
2022/12/15 16:48:30;;;;;;;;;;;;;;;;;;;;;
2022/12/15 16:51:02;;;;;;;44.77;21.83;;;;;;;12.31;67.18;98887.59;6070242;23;20212;-89
2022/12/15 16:53:34;;;;;;;54.23;21.33;;;;;;;12.23;67.03;98881.97;6044379;23;20155;-89
2022/12/15 16:56:06;;;;;;;42.93;19.93;;;;;;;12.16;67.22;98890.31;6044278;23;20144;-90
2022/12/15 16:58:35;;;;;;;45.83;21.40;;;;;;;12.19;67.55;98890.97;6069476;23;20176;-89
2022/12/15 17:01:03;;;;;;;42.97;19.90;;;;;;;12.18;67.23;98898.97;6069748;23;20179;-89
2022/12/15 17:03:28;;;;;;;49.47;20.53;;;;;;;12.07;66.99;98897.03;6043881;23;20155;-89
2022/12/15 17:06:00;;;;;;;52.17;22.50;;;;;;;12.18;66.64;98893.72;6067987;23;20480;-89
2022/12/15 17:08:36;;;;;;;59.83;20.50;;;;;;;12.18;66.69;98904.22;6044371;23;20152;-89
2022/12/15 17:11:02;;;;;;;56.83;21.87;;;;;;;12.12;66.55;98905.44;6067830;23;20289;-89
2022/12/15 17:13:53;;;;;;;;;;;;;;;;;;;;;
2022/12/15 17:16:24;;;;;;;47.83;20.27;;;;;;;12.21;66.32;98909.31;6069285;23;20209;-89
2022/12/15 17:18:59;;;;;;;51.53;24.13;;;;;;;12.16;66.15;98919.22;6067891;23;20474;-88
2022/12/15 17:21:32;;;;;;;47.97;22.73;;;;;;;12.20;66.22;98918.97;6044448;23;20262;-89
2022/12/15 17:24:12;;;;;;;55.27;23.23;;;;;;;12.02;66.61;98924.50;6044526;23;20471;-89
2022/12/15 17:26:38;;;;;;;54.50;23.00;;;;;;;11.94;67.07;98934.63;6044086;23;20230;-88
2022/12/15 17:29:13;;;;;;;73.70;24.77;;;;;;;11.93;67.51;98930.31;6067790;23;20188;-90
2022/12/15 17:31:41;;;;;;;56.47;22.90;;;;;;;11.78;67.81;98941.75;6043784;23;20217;-89
2022/12/15 17:34:35;;;;;;;43.93;19.73;;;;;;;11.58;68.10;98940.31;6043588;23;20159;-89
2022/12/15 17:37:03;;;;;;;49.30;19.87;;;;;;;11.55;68.55;98941.34;6044727;23;20289;-89
2022/12/15 17:39:32;;;;;;;50.27;21.50;;;;;;;11.48;68.79;98944.38;6068805;23;20219;-89
2022/12/15 17:42:00;;;;;;;56.37;22.23;;;;;;;11.64;68.22;98940.78;6067325;23;20179;-89
2022/12/15 17:44:28;;;;;;;51.37;23.40;;;;;;;11.53;68.37;98942.38;6067613;23;20526;-89
2022/12/15 17:46:56;;;;;;;56.83;23.43;;;;;;;11.57;68.24;98934.22;6044022;23;20166;-89
2022/12/15 17:49:21;;;;;;;67.03;28.30;;;;;;;11.76;67.27;98936.63;6043586;23;20153;-89
2022/12/15 17:51:48;;;;;;;60.60;29.20;;;;;;;11.81;67.25;98937.19;6068913;23;20146;-88
2022/12/15 17:54:22;;;;;;;79.13;33.30;;;;;;;11.76;67.36;98931.34;6044525;23;20173;-89
2022/12/15 17:56:48;;;;;;;73.60;31.47;;;;;;;11.60;68.28;98935.81;6044361;23;20155;-89
2022/12/15 17:59:19;;;;;;;67.50;29.67;;;;;;;11.64;68.24;98932.03;6044128;23;20157;-89
2022/12/15 18:01:47;;;;;;;58.47;28.30;;;;;;;11.66;68.17;98923.13;6067383;23;20248;-89
2022/12/15 18:04:15;;;;;;;58.40;25.87;;;;;;;11.65;68.10;98931.13;6043550;23;20284;-89
2022/12/15 18:06:45;;;;;;;56.23;23.97;;;;;;;11.59;68.00;98942.84;6043374;23;20169;-89
2022/12/15 18:09:29;;;;;;;57.17;23.27;;;;;;;11.41;69.03;98946.56;6068784;23;20170;-89
2022/12/15 18:11:54;;;;;;;49.00;21.33;;;;;;;11.44;69.02;98940.28;6069205;23;20134;-88
2022/12/15 18:14:21;;;;;;;45.50;20.23;;;;;;;11.30;69.56;98953.34;6043730;23;20166;-89
2022/12/15 18:16:47;;;;;;;46.27;20.60;;;;;;;11.22;69.84;98961.66;6069004;23;20150;-88
2022/12/15 18:19:13;;;;;;;47.13;21.13;;;;;;;11.21;69.92;98946.88;6068272;23;20543;-89
2022/12/15 18:21:39;;;;;;;45.03;19.33;;;;;;;11.23;69.74;98950.25;6067057;23;20178;-90
2022/12/15 18:24:15;;;;;;;44.00;21.10;;;;;;;11.22;70.48;98956.41;6043454;23;20160;-88
2022/12/15 18:26:41;;;;;;;45.30;18.57;;;;;;;11.16;70.38;98967.28;6068757;23;20138;-90
2022/12/15 18:29:16;;;;;;;47.40;20.50;;;;;;;11.20;70.32;98976.66;6068885;23;20158;-89
2022/12/15 18:31:44;;;;;;;38.40;16.77;;;;;;;11.27;69.94;98977.16;6067025;23;20156;-89
2022/12/15 18:34:16;;;;;;;37.63;17.37;;;;;;;11.29;69.61;98973.50;6043229;23;20168;-89
2022/12/15 18:36:42;;;;;;;42.07;17.90;;;;;;;11.14;69.21;98982.25;6068067;23;20157;-89
2022/12/15 18:39:20;;;;;;;57.43;24.40;;;;;;;11.09;69.74;98976.41;6043035;23;20487;-89
2022/12/15 18:41:47;;;;;;;69.77;28.67;;;;;;;11.21;69.22;98978.38;6066854;23;20184;-89
2022/12/15 18:44:25;;;;;;;62.40;26.07;;;;;;;11.03;69.61;98980.22;6043433;23;20233;-89
2022/12/15 18:46:51;;;;;;;72.23;35.77;;;;;;;10.99;69.87;98983.13;6068133;23;20149;-88
2022/12/15 18:49:17;;;;;;;110.30;42.17;;;;;;;10.95;69.92;98981.63;6068715;23;20275;-89
2022/12/15 18:51:47;;;;;;;98.43;44.47;;;;;;;11.05;70.09;98982.78;6068410;23;20146;-89
2022/12/15 18:54:22;;;;;;;89.33;42.00;;;;;;;11.09;70.00;98984.28;6043347;23;20216;-89
2022/12/15 18:56:48;;;;;;;102.23;46.03;;;;;;;10.97;70.24;98979.75;6042909;23;20150;-89
2022/12/15 18:59:15;;;;;;;113.30;48.80;;;;;;;10.98;70.21;98978.81;6066895;23;20165;-88
2022/12/15 19:01:42;;;;;;;104.70;47.80;;;;;;;10.98;70.39;98981.41;6042791;23;20189;-89